sensor_id;sensor_type;location;lat;lon;timestamp;pressure;altitude;pressure_sealevel;temperature
74536;BMP180;63013;51.104;-115.370;2023-02-28T00:01:26;85400.80;;;23.20
74536;BMP180;63013;51.104;-115.370;2023-02-28T00:03:53;85403.20;;;23.20
74536;BMP180;63013;51.104;-115.370;2023-02-28T00:06:20;85397.40;;;23.20
74536;BMP180;63013;51.104;-115.370;2023-02-28T00:08:47;85399.00;;;23.20
74536;BMP180;63013;51.104;-115.370;2023-02-28T00:11:16;85398.40;;;23.18
74536;BMP180;63013;51.104;-115.370;2023-02-28T00:13:46;85401.60;;;23.10
74536;BMP180;63013;51.104;-115.370;2023-02-28T00:16:19;85391.60;;;23.10
74536;BMP180;63013;51.104;-115.370;2023-02-28T00:18:46;85401.60;;;23.10
74536;BMP180;63013;51.104;-115.370;2023-02-28T00:21:14;85398.20;;;23.00
74536;BMP180;63013;51.104;-115.370;2023-02-28T00:23:42;85400.80;;;23.00
74536;BMP180;63013;51.104;-115.370;2023-02-28T00:26:09;85402.80;;;23.00
74536;BMP180;63013;51.104;-115.370;2023-02-28T00:28:36;85406.00;;;22.98
74536;BMP180;63013;51.104;-115.370;2023-02-28T00:31:03;85399.80;;;22.92
74536;BMP180;63013;51.104;-115.370;2023-02-28T00:33:31;85402.40;;;22.90
74536;BMP180;63013;51.104;-115.370;2023-02-28T00:36:07;85398.60;;;22.90
74536;BMP180;63013;51.104;-115.370;2023-02-28T00:38:36;85400.00;;;22.90
74536;BMP180;63013;51.104;-115.370;2023-02-28T00:41:04;85401.80;;;22.80
74536;BMP180;63013;51.104;-115.370;2023-02-28T00:43:33;85405.60;;;22.80
74536;BMP180;63013;51.104;-115.370;2023-02-28T00:46:01;85409.20;;;22.80
74536;BMP180;63013;51.104;-115.370;2023-02-28T00:48:28;85409.80;;;22.80
74536;BMP180;63013;51.104;-115.370;2023-02-28T00:50:55;85410.40;;;22.76
74536;BMP180;63013;51.104;-115.370;2023-02-28T00:53:23;85407.80;;;22.70
74536;BMP180;63013;51.104;-115.370;2023-02-28T00:55:50;85412.80;;;22.70
74536;BMP180;63013;51.104;-115.370;2023-02-28T00:58:17;85415.80;;;22.70
74536;BMP180;63013;51.104;-115.370;2023-02-28T01:00:45;85418.20;;;22.70
74536;BMP180;63013;51.104;-115.370;2023-02-28T01:03:17;85416.20;;;22.62
74536;BMP180;63013;51.104;-115.370;2023-02-28T01:05:46;85421.40;;;22.60
74536;BMP180;63013;51.104;-115.370;2023-02-28T01:08:14;85425.60;;;22.60
74536;BMP180;63013;51.104;-115.370;2023-02-28T01:10:41;85427.80;;;22.60
74536;BMP180;63013;51.104;-115.370;2023-02-28T01:13:08;85428.40;;;22.60
74536;BMP180;63013;51.104;-115.370;2023-02-28T01:15:35;85437.40;;;22.58
74536;BMP180;63013;51.104;-115.370;2023-02-28T01:18:02;85439.60;;;22.50
74536;BMP180;63013;51.104;-115.370;2023-02-28T01:20:30;85445.20;;;22.50
74536;BMP180;63013;51.104;-115.370;2023-02-28T01:22:56;85446.60;;;22.50
74536;BMP180;63013;51.104;-115.370;2023-02-28T01:25:26;85443.40;;;22.50
74536;BMP180;63013;51.104;-115.370;2023-02-28T01:27:53;85441.80;;;22.50
74536;BMP180;63013;51.104;-115.370;2023-02-28T01:30:20;85441.60;;;22.48
74536;BMP180;63013;51.104;-115.370;2023-02-28T01:32:48;85443.20;;;22.44
74536;BMP180;63013;51.104;-115.370;2023-02-28T01:35:16;85444.80;;;22.40
74536;BMP180;63013;51.104;-115.370;2023-02-28T01:37:43;85440.80;;;22.40
74536;BMP180;63013;51.104;-115.370;2023-02-28T01:40:11;85440.60;;;22.40
74536;BMP180;63013;51.104;-115.370;2023-02-28T01:42:38;85439.00;;;22.40
74536;BMP180;63013;51.104;-115.370;2023-02-28T01:45:30;85437.40;;;22.36
74536;BMP180;63013;51.104;-115.370;2023-02-28T01:48:08;85437.60;;;22.32
74536;BMP180;63013;51.104;-115.370;2023-02-28T01:50:43;85442.60;;;22.30
74536;BMP180;63013;51.104;-115.370;2023-02-28T01:53:18;85440.20;;;22.30
74536;BMP180;63013;51.104;-115.370;2023-02-28T01:55:50;85440.60;;;22.30
74536;BMP180;63013;51.104;-115.370;2023-02-28T01:58:18;85441.20;;;22.22
74536;BMP180;63013;51.104;-115.370;2023-02-28T02:00:46;85441.80;;;22.20
74536;BMP180;63013;51.104;-115.370;2023-02-28T02:03:19;85440.80;;;22.20
74536;BMP180;63013;51.104;-115.370;2023-02-28T02:05:47;85443.40;;;22.20
74536;BMP180;63013;51.104;-115.370;2023-02-28T02:08:23;85444.20;;;22.18
74536;BMP180;63013;51.104;-115.370;2023-02-28T02:10:54;85440.60;;;22.10
74536;BMP180;63013;51.104;-115.370;2023-02-28T02:14:00;85437.60;;;22.10
74536;BMP180;63013;51.104;-115.370;2023-02-28T02:20:08;85445.40;;;22.10
74536;BMP180;63013;51.104;-115.370;2023-02-28T02:34:56;85443.60;;;21.90
74536;BMP180;63013;51.104;-115.370;2023-02-28T02:40:23;85436.00;;;21.88
74536;BMP180;63013;51.104;-115.370;2023-02-28T02:43:34;85438.00;;;21.80
74536;BMP180;63013;51.104;-115.370;2023-02-28T02:45:56;85430.40;;;21.80
74536;BMP180;63013;51.104;-115.370;2023-02-28T02:48:32;85423.80;;;21.80
74536;BMP180;63013;51.104;-115.370;2023-02-28T02:51:10;85431.00;;;21.80
74536;BMP180;63013;51.104;-115.370;2023-02-28T02:53:53;85429.20;;;21.80
74536;BMP180;63013;51.104;-115.370;2023-02-28T02:56:28;85426.60;;;21.80
74536;BMP180;63013;51.104;-115.370;2023-02-28T02:59:06;85427.20;;;21.80
74536;BMP180;63013;51.104;-115.370;2023-02-28T03:01:38;85422.40;;;21.80
74536;BMP180;63013;51.104;-115.370;2023-02-28T03:04:17;85420.20;;;21.80
74536;BMP180;63013;51.104;-115.370;2023-02-28T03:06:45;85411.40;;;21.80
74536;BMP180;63013;51.104;-115.370;2023-02-28T03:09:12;85413.20;;;21.80
74536;BMP180;63013;51.104;-115.370;2023-02-28T03:11:41;85408.80;;;21.80
74536;BMP180;63013;51.104;-115.370;2023-02-28T03:14:41;85405.20;;;21.80
74536;BMP180;63013;51.104;-115.370;2023-02-28T03:17:26;85399.00;;;21.80
74536;BMP180;63013;51.104;-115.370;2023-02-28T03:20:17;85394.80;;;21.80
74536;BMP180;63013;51.104;-115.370;2023-02-28T03:23:13;85393.20;;;21.80
74536;BMP180;63013;51.104;-115.370;2023-02-28T03:26:01;85394.80;;;21.80
74536;BMP180;63013;51.104;-115.370;2023-02-28T03:31:41;85388.40;;;21.76
74536;BMP180;63013;51.104;-115.370;2023-02-28T03:34:37;85386.20;;;21.70
74536;BMP180;63013;51.104;-115.370;2023-02-28T03:37:20;85387.60;;;21.70
74536;BMP180;63013;51.104;-115.370;2023-02-28T03:40:06;85390.40;;;21.70
74536;BMP180;63013;51.104;-115.370;2023-02-28T03:42:38;85393.00;;;21.70
74536;BMP180;63013;51.104;-115.370;2023-02-28T03:45:18;85390.40;;;21.68
74536;BMP180;63013;51.104;-115.370;2023-02-28T03:50:47;85389.20;;;21.60
74536;BMP180;63013;51.104;-115.370;2023-02-28T03:53:27;85389.20;;;21.60
74536;BMP180;63013;51.104;-115.370;2023-02-28T03:56:21;85392.60;;;21.60
74536;BMP180;63013;51.104;-115.370;2023-02-28T03:59:37;85384.40;;;21.56
74536;BMP180;63013;51.104;-115.370;2023-02-28T04:02:07;85386.00;;;21.50
74536;BMP180;63013;51.104;-115.370;2023-02-28T04:04:35;85384.00;;;21.50
74536;BMP180;63013;51.104;-115.370;2023-02-28T04:07:07;85382.80;;;21.50
74536;BMP180;63013;51.104;-115.370;2023-02-28T04:09:35;85385.20;;;21.48
74536;BMP180;63013;51.104;-115.370;2023-02-28T04:12:02;85390.40;;;21.40
74536;BMP180;63013;51.104;-115.370;2023-02-28T04:14:30;85388.40;;;21.40
74536;BMP180;63013;51.104;-115.370;2023-02-28T04:16:57;85387.80;;;21.40
74536;BMP180;63013;51.104;-115.370;2023-02-28T04:19:24;85383.00;;;21.40
74536;BMP180;63013;51.104;-115.370;2023-02-28T04:21:53;85382.80;;;21.40
74536;BMP180;63013;51.104;-115.370;2023-02-28T04:24:27;85382.20;;;21.32
74536;BMP180;63013;51.104;-115.370;2023-02-28T04:26:56;85387.00;;;21.30
74536;BMP180;63013;51.104;-115.370;2023-02-28T04:29:29;85386.40;;;21.30
74536;BMP180;63013;51.104;-115.370;2023-02-28T04:32:00;85385.80;;;21.30
74536;BMP180;63013;51.104;-115.370;2023-02-28T04:34:30;85381.80;;;21.30
74536;BMP180;63013;51.104;-115.370;2023-02-28T04:36:58;85384.60;;;21.30
74536;BMP180;63013;51.104;-115.370;2023-02-28T04:39:26;85382.60;;;21.20
74536;BMP180;63013;51.104;-115.370;2023-02-28T04:41:53;85375.20;;;21.20
74536;BMP180;63013;51.104;-115.370;2023-02-28T04:44:21;85376.60;;;21.20
74536;BMP180;63013;51.104;-115.370;2023-02-28T04:46:49;85375.80;;;21.20
74536;BMP180;63013;51.104;-115.370;2023-02-28T04:49:16;85376.00;;;21.20
74536;BMP180;63013;51.104;-115.370;2023-02-28T04:51:44;85372.80;;;21.20
74536;BMP180;63013;51.104;-115.370;2023-02-28T04:54:11;85378.20;;;21.20
74536;BMP180;63013;51.104;-115.370;2023-02-28T04:56:40;85379.60;;;21.16
74536;BMP180;63013;51.104;-115.370;2023-02-28T04:59:07;85374.80;;;21.10
74536;BMP180;63013;51.104;-115.370;2023-02-28T05:01:34;85367.60;;;21.10
74536;BMP180;63013;51.104;-115.370;2023-02-28T05:04:04;85369.00;;;21.10
74536;BMP180;63013;51.104;-115.370;2023-02-28T05:06:33;85370.60;;;21.10
74536;BMP180;63013;51.104;-115.370;2023-02-28T05:09:01;85371.80;;;21.10
74536;BMP180;63013;51.104;-115.370;2023-02-28T05:11:31;85367.20;;;21.10
74536;BMP180;63013;51.104;-115.370;2023-02-28T05:14:05;85368.20;;;21.10
74536;BMP180;63013;51.104;-115.370;2023-02-28T05:16:33;85362.60;;;21.00
74536;BMP180;63013;51.104;-115.370;2023-02-28T05:19:00;85364.20;;;21.00
74536;BMP180;63013;51.104;-115.370;2023-02-28T05:21:37;85365.00;;;21.00
74536;BMP180;63013;51.104;-115.370;2023-02-28T05:24:16;85367.00;;;21.00
74536;BMP180;63013;51.104;-115.370;2023-02-28T05:26:52;85375.60;;;20.98
74536;BMP180;63013;51.104;-115.370;2023-02-28T05:29:20;85367.20;;;20.94
74536;BMP180;63013;51.104;-115.370;2023-02-28T05:31:47;85372.80;;;20.90
74536;BMP180;63013;51.104;-115.370;2023-02-28T05:34:14;85374.60;;;20.90
74536;BMP180;63013;51.104;-115.370;2023-02-28T05:36:42;85378.80;;;20.90
74536;BMP180;63013;51.104;-115.370;2023-02-28T05:39:10;85376.80;;;20.90
74536;BMP180;63013;51.104;-115.370;2023-02-28T05:41:41;85380.20;;;20.86
74536;BMP180;63013;51.104;-115.370;2023-02-28T05:44:09;85377.20;;;20.80
74536;BMP180;63013;51.104;-115.370;2023-02-28T05:46:36;85379.60;;;20.80
74536;BMP180;63013;51.104;-115.370;2023-02-28T05:49:04;85374.60;;;20.80
74536;BMP180;63013;51.104;-115.370;2023-02-28T05:51:31;85375.00;;;20.80
74536;BMP180;63013;51.104;-115.370;2023-02-28T05:54:01;85374.20;;;20.72
74536;BMP180;63013;51.104;-115.370;2023-02-28T05:56:29;85377.60;;;20.70
74536;BMP180;63013;51.104;-115.370;2023-02-28T05:58:56;85370.60;;;20.70
74536;BMP180;63013;51.104;-115.370;2023-02-28T06:01:36;85367.60;;;20.70
74536;BMP180;63013;51.104;-115.370;2023-02-28T06:04:06;85367.00;;;20.68
74536;BMP180;63013;51.104;-115.370;2023-02-28T06:06:34;85368.00;;;20.60
74536;BMP180;63013;51.104;-115.370;2023-02-28T06:09:04;85361.80;;;20.60
74536;BMP180;63013;51.104;-115.370;2023-02-28T06:11:32;85361.60;;;20.60
74536;BMP180;63013;51.104;-115.370;2023-02-28T06:14:01;85361.60;;;20.60
74536;BMP180;63013;51.104;-115.370;2023-02-28T06:16:31;85363.60;;;20.50
74536;BMP180;63013;51.104;-115.370;2023-02-28T06:19:01;85357.80;;;20.50
74536;BMP180;63013;51.104;-115.370;2023-02-28T06:21:29;85354.60;;;20.50
74536;BMP180;63013;51.104;-115.370;2023-02-28T06:23:58;85358.20;;;20.50
74536;BMP180;63013;51.104;-115.370;2023-02-28T06:26:25;85363.40;;;20.46
74536;BMP180;63013;51.104;-115.370;2023-02-28T06:28:53;85362.60;;;20.40
74536;BMP180;63013;51.104;-115.370;2023-02-28T06:31:20;85355.60;;;20.40
74536;BMP180;63013;51.104;-115.370;2023-02-28T06:33:49;85354.60;;;20.40
74536;BMP180;63013;51.104;-115.370;2023-02-28T06:36:17;85355.40;;;20.40
74536;BMP180;63013;51.104;-115.370;2023-02-28T06:38:45;85359.00;;;20.30
74536;BMP180;63013;51.104;-115.370;2023-02-28T06:41:14;85358.60;;;20.30
74536;BMP180;63013;51.104;-115.370;2023-02-28T06:43:42;85359.60;;;20.30
74536;BMP180;63013;51.104;-115.370;2023-02-28T06:46:13;85358.00;;;20.30
74536;BMP180;63013;51.104;-115.370;2023-02-28T06:48:43;85355.20;;;20.28
74536;BMP180;63013;51.104;-115.370;2023-02-28T06:51:18;85352.60;;;20.20
74536;BMP180;63013;51.104;-115.370;2023-02-28T06:53:47;85348.20;;;20.20
74536;BMP180;63013;51.104;-115.370;2023-02-28T06:56:15;85351.00;;;20.20
74536;BMP180;63013;51.104;-115.370;2023-02-28T06:58:50;85350.20;;;20.20
74536;BMP180;63013;51.104;-115.370;2023-02-28T07:01:19;85350.00;;;20.18
74536;BMP180;63013;51.104;-115.370;2023-02-28T07:03:49;85347.80;;;20.10
74536;BMP180;63013;51.104;-115.370;2023-02-28T07:06:23;85349.20;;;20.10
74536;BMP180;63013;51.104;-115.370;2023-02-28T07:08:54;85346.20;;;20.10
74536;BMP180;63013;51.104;-115.370;2023-02-28T07:11:25;85341.80;;;20.10
74536;BMP180;63013;51.104;-115.370;2023-02-28T07:13:56;85344.60;;;20.08
74536;BMP180;63013;51.104;-115.370;2023-02-28T07:16:25;85343.00;;;20.00
74536;BMP180;63013;51.104;-115.370;2023-02-28T07:18:55;85347.20;;;20.00
74536;BMP180;63013;51.104;-115.370;2023-02-28T07:21:22;85344.80;;;20.00
74536;BMP180;63013;51.104;-115.370;2023-02-28T07:23:50;85344.60;;;20.00
74536;BMP180;63013;51.104;-115.370;2023-02-28T07:26:20;85337.20;;;20.00
74536;BMP180;63013;51.104;-115.370;2023-02-28T07:28:48;85338.40;;;20.00
74536;BMP180;63013;51.104;-115.370;2023-02-28T07:31:16;85338.20;;;19.92
74536;BMP180;63013;51.104;-115.370;2023-02-28T07:33:45;85337.60;;;19.90
74536;BMP180;63013;51.104;-115.370;2023-02-28T07:36:17;85334.60;;;19.90
74536;BMP180;63013;51.104;-115.370;2023-02-28T07:38:48;85339.40;;;19.90
74536;BMP180;63013;51.104;-115.370;2023-02-28T07:41:18;85336.80;;;19.90
74536;BMP180;63013;51.104;-115.370;2023-02-28T07:43:46;85343.20;;;19.90
74536;BMP180;63013;51.104;-115.370;2023-02-28T07:46:16;85338.40;;;19.80
74536;BMP180;63013;51.104;-115.370;2023-02-28T07:48:44;85339.20;;;19.80
74536;BMP180;63013;51.104;-115.370;2023-02-28T07:51:12;85342.00;;;19.80
74536;BMP180;63013;51.104;-115.370;2023-02-28T07:53:39;85339.40;;;19.80
74536;BMP180;63013;51.104;-115.370;2023-02-28T07:56:07;85341.60;;;19.78
74536;BMP180;63013;51.104;-115.370;2023-02-28T07:58:34;85340.80;;;19.70
74536;BMP180;63013;51.104;-115.370;2023-02-28T08:01:10;85337.60;;;19.70
74536;BMP180;63013;51.104;-115.370;2023-02-28T08:03:38;85335.00;;;19.70
74536;BMP180;63013;51.104;-115.370;2023-02-28T08:06:08;85329.40;;;19.70
74536;BMP180;63013;51.104;-115.370;2023-02-28T08:08:42;85332.20;;;19.68
74536;BMP180;63013;51.104;-115.370;2023-02-28T08:11:10;85330.20;;;19.60
74536;BMP180;63013;51.104;-115.370;2023-02-28T08:13:38;85333.40;;;19.60
74536;BMP180;63013;51.104;-115.370;2023-02-28T08:16:05;85332.40;;;19.60
74536;BMP180;63013;51.104;-115.370;2023-02-28T08:18:33;85332.40;;;19.60
74536;BMP180;63013;51.104;-115.370;2023-02-28T08:21:06;85329.60;;;19.60
74536;BMP180;63013;51.104;-115.370;2023-02-28T08:23:34;85334.60;;;19.50
74536;BMP180;63013;51.104;-115.370;2023-02-28T08:26:02;85328.40;;;19.50
74536;BMP180;63013;51.104;-115.370;2023-02-28T08:28:29;85326.80;;;19.50
74536;BMP180;63013;51.104;-115.370;2023-02-28T08:30:56;85331.20;;;19.50
74536;BMP180;63013;51.104;-115.370;2023-02-28T08:33:24;85328.20;;;19.50
74536;BMP180;63013;51.104;-115.370;2023-02-28T08:35:56;85325.80;;;19.48
74536;BMP180;63013;51.104;-115.370;2023-02-28T08:38:24;85326.40;;;19.40
74536;BMP180;63013;51.104;-115.370;2023-02-28T08:40:59;85326.00;;;19.40
74536;BMP180;63013;51.104;-115.370;2023-02-28T08:43:28;85325.20;;;19.40
74536;BMP180;63013;51.104;-115.370;2023-02-28T08:45:56;85324.40;;;19.40
74536;BMP180;63013;51.104;-115.370;2023-02-28T08:48:26;85325.40;;;19.40
74536;BMP180;63013;51.104;-115.370;2023-02-28T08:51:03;85325.00;;;19.40
74536;BMP180;63013;51.104;-115.370;2023-02-28T08:53:32;85323.20;;;19.30
74536;BMP180;63013;51.104;-115.370;2023-02-28T08:56:09;85323.60;;;19.30
74536;BMP180;63013;51.104;-115.370;2023-02-28T08:58:37;85320.40;;;19.30
74536;BMP180;63013;51.104;-115.370;2023-02-28T09:01:14;85318.00;;;19.30
74536;BMP180;63013;51.104;-115.370;2023-02-28T09:03:43;85315.40;;;19.30
74536;BMP180;63013;51.104;-115.370;2023-02-28T09:06:11;85314.20;;;19.20
74536;BMP180;63013;51.104;-115.370;2023-02-28T09:08:38;85311.80;;;19.20
74536;BMP180;63013;51.104;-115.370;2023-02-28T09:11:06;85310.60;;;19.20
74536;BMP180;63013;51.104;-115.370;2023-02-28T09:13:34;85305.40;;;19.20
74536;BMP180;63013;51.104;-115.370;2023-02-28T09:16:06;85308.60;;;19.20
74536;BMP180;63013;51.104;-115.370;2023-02-28T09:18:36;85305.00;;;19.18
74536;BMP180;63013;51.104;-115.370;2023-02-28T09:21:11;85303.00;;;19.10
74536;BMP180;63013;51.104;-115.370;2023-02-28T09:23:42;85298.40;;;19.10
74536;BMP180;63013;51.104;-115.370;2023-02-28T09:26:19;85300.00;;;19.10
74536;BMP180;63013;51.104;-115.370;2023-02-28T09:28:46;85298.60;;;19.10
74536;BMP180;63013;51.104;-115.370;2023-02-28T09:31:17;85292.40;;;19.10
74536;BMP180;63013;51.104;-115.370;2023-02-28T09:33:49;85294.40;;;19.10
74536;BMP180;63013;51.104;-115.370;2023-02-28T09:36:17;85293.20;;;19.02
74536;BMP180;63013;51.104;-115.370;2023-02-28T09:38:44;85294.60;;;19.00
74536;BMP180;63013;51.104;-115.370;2023-02-28T09:41:24;85288.80;;;19.00
74536;BMP180;63013;51.104;-115.370;2023-02-28T09:44:02;85281.60;;;19.00
74536;BMP180;63013;51.104;-115.370;2023-02-28T09:46:53;85280.40;;;19.00
74536;BMP180;63013;51.104;-115.370;2023-02-28T09:49:28;85275.60;;;18.94
74536;BMP180;63013;51.104;-115.370;2023-02-28T09:52:12;85276.00;;;18.90
74536;BMP180;63013;51.104;-115.370;2023-02-28T09:54:40;85269.60;;;18.90
74536;BMP180;63013;51.104;-115.370;2023-02-28T09:57:39;85267.80;;;18.90
74536;BMP180;63013;51.104;-115.370;2023-02-28T10:00:37;85267.00;;;18.90
74536;BMP180;63013;51.104;-115.370;2023-02-28T10:03:42;85264.80;;;18.90
74536;BMP180;63013;51.104;-115.370;2023-02-28T10:06:19;85261.80;;;18.82
74536;BMP180;63013;51.104;-115.370;2023-02-28T10:09:11;85261.00;;;18.80
74536;BMP180;63013;51.104;-115.370;2023-02-28T10:11:40;85258.20;;;18.80
74536;BMP180;63013;51.104;-115.370;2023-02-28T10:14:17;85258.40;;;18.80
74536;BMP180;63013;51.104;-115.370;2023-02-28T10:20:00;85259.00;;;18.70
74536;BMP180;63013;51.104;-115.370;2023-02-28T10:25:36;85256.60;;;18.70
74536;BMP180;63013;51.104;-115.370;2023-02-28T10:28:15;85249.00;;;18.68
74536;BMP180;63013;51.104;-115.370;2023-02-28T10:30:51;85249.20;;;18.64
74536;BMP180;63013;51.104;-115.370;2023-02-28T10:33:36;85247.60;;;18.60
74536;BMP180;63013;51.104;-115.370;2023-02-28T10:36:05;85246.80;;;18.60
74536;BMP180;63013;51.104;-115.370;2023-02-28T10:38:39;85248.40;;;18.60
74536;BMP180;63013;51.104;-115.370;2023-02-28T10:41:27;85249.80;;;18.52
74536;BMP180;63013;51.104;-115.370;2023-02-28T10:44:21;85245.80;;;18.50
74536;BMP180;63013;51.104;-115.370;2023-02-28T10:46:50;85245.80;;;18.50
74536;BMP180;63013;51.104;-115.370;2023-02-28T10:49:23;85243.60;;;18.50
74536;BMP180;63013;51.104;-115.370;2023-02-28T10:51:58;85241.80;;;18.50
74536;BMP180;63013;51.104;-115.370;2023-02-28T10:54:32;85240.60;;;18.48
74536;BMP180;63013;51.104;-115.370;2023-02-28T10:57:21;85241.00;;;18.44
74536;BMP180;63013;51.104;-115.370;2023-02-28T11:00:21;85240.60;;;18.40
74536;BMP180;63013;51.104;-115.370;2023-02-28T11:02:49;85237.60;;;18.40
74536;BMP180;63013;51.104;-115.370;2023-02-28T11:05:35;85237.60;;;18.40
74536;BMP180;63013;51.104;-115.370;2023-02-28T11:08:17;85236.20;;;18.40
74536;BMP180;63013;51.104;-115.370;2023-02-28T11:10:55;85239.80;;;18.30
74536;BMP180;63013;51.104;-115.370;2023-02-28T11:13:34;85236.20;;;18.30
74536;BMP180;63013;51.104;-115.370;2023-02-28T11:16:09;85234.80;;;18.30
74536;BMP180;63013;51.104;-115.370;2023-02-28T11:18:49;85238.80;;;18.30
74536;BMP180;63013;51.104;-115.370;2023-02-28T11:21:33;85234.80;;;18.30
74536;BMP180;63013;51.104;-115.370;2023-02-28T11:24:22;85237.40;;;18.22
74536;BMP180;63013;51.104;-115.370;2023-02-28T11:26:49;85234.00;;;18.20
74536;BMP180;63013;51.104;-115.370;2023-02-28T11:29:24;85237.60;;;18.20
74536;BMP180;63013;51.104;-115.370;2023-02-28T11:32:20;85233.80;;;18.20
74536;BMP180;63013;51.104;-115.370;2023-02-28T11:35:04;85231.20;;;18.20
74536;BMP180;63013;51.104;-115.370;2023-02-28T11:37:40;85232.00;;;18.20
74536;BMP180;63013;51.104;-115.370;2023-02-28T11:40:21;85230.40;;;18.12
74536;BMP180;63013;51.104;-115.370;2023-02-28T11:42:55;85231.80;;;18.10
74536;BMP180;63013;51.104;-115.370;2023-02-28T11:46:10;85231.40;;;18.10
74536;BMP180;63013;51.104;-115.370;2023-02-28T11:52:20;85231.20;;;18.10
74536;BMP180;63013;51.104;-115.370;2023-02-28T11:58:24;85232.60;;;18.00
74536;BMP180;63013;51.104;-115.370;2023-02-28T12:07:24;85232.80;;;17.90
74536;BMP180;63013;51.104;-115.370;2023-02-28T12:26:42;85232.80;;;17.90
74536;BMP180;63013;51.104;-115.370;2023-02-28T12:29:32;85232.80;;;17.90
74536;BMP180;63013;51.104;-115.370;2023-02-28T12:32:09;85237.20;;;17.90
74536;BMP180;63013;51.104;-115.370;2023-02-28T12:34:55;85234.00;;;17.88
74536;BMP180;63013;51.104;-115.370;2023-02-28T12:38:02;85237.40;;;17.80
74536;BMP180;63013;51.104;-115.370;2023-02-28T12:40:56;85236.20;;;17.80
74536;BMP180;63013;51.104;-115.370;2023-02-28T12:43:40;85244.00;;;17.80
74536;BMP180;63013;51.104;-115.370;2023-02-28T12:48:55;85244.80;;;17.80
74536;BMP180;63013;51.104;-115.370;2023-02-28T12:51:24;85244.40;;;17.80
74536;BMP180;63013;51.104;-115.370;2023-02-28T12:54:35;85242.20;;;17.80
74536;BMP180;63013;51.104;-115.370;2023-02-28T12:57:55;85245.80;;;17.80
74536;BMP180;63013;51.104;-115.370;2023-02-28T13:00:32;85243.40;;;17.80
74536;BMP180;63013;51.104;-115.370;2023-02-28T13:04:07;85244.80;;;17.80
74536;BMP180;63013;51.104;-115.370;2023-02-28T13:09:57;85245.20;;;17.78
74536;BMP180;63013;51.104;-115.370;2023-02-28T13:12:24;85249.00;;;17.76
74536;BMP180;63013;51.104;-115.370;2023-02-28T13:15:18;85247.60;;;17.72
74536;BMP180;63013;51.104;-115.370;2023-02-28T13:17:58;85248.40;;;17.70
74536;BMP180;63013;51.104;-115.370;2023-02-28T13:20:48;85243.20;;;17.70
74536;BMP180;63013;51.104;-115.370;2023-02-28T13:27:10;85247.80;;;17.70
74536;BMP180;63013;51.104;-115.370;2023-02-28T13:29:40;85244.40;;;17.74
74536;BMP180;63013;51.104;-115.370;2023-02-28T13:34:46;85251.00;;;17.80
74536;BMP180;63013;51.104;-115.370;2023-02-28T13:39:55;85247.60;;;17.80
74536;BMP180;63013;51.104;-115.370;2023-02-28T13:47:53;85253.00;;;17.90
74536;BMP180;63013;51.104;-115.370;2023-02-28T13:55:56;85250.20;;;18.00
74536;BMP180;63013;51.104;-115.370;2023-02-28T13:58:55;85251.60;;;18.10
74536;BMP180;63013;51.104;-115.370;2023-02-28T14:01:38;85244.20;;;18.10
74536;BMP180;63013;51.104;-115.370;2023-02-28T14:05:17;85251.00;;;18.10
74536;BMP180;63013;51.104;-115.370;2023-02-28T14:07:56;85257.20;;;18.20
74536;BMP180;63013;51.104;-115.370;2023-02-28T14:10:46;85253.20;;;18.20
74536;BMP180;63013;51.104;-115.370;2023-02-28T14:16:14;85253.40;;;18.30
74536;BMP180;63013;51.104;-115.370;2023-02-28T14:19:03;85253.20;;;18.36
74536;BMP180;63013;51.104;-115.370;2023-02-28T14:21:43;85255.80;;;18.40
74536;BMP180;63013;51.104;-115.370;2023-02-28T14:24:54;85259.60;;;18.40
74536;BMP180;63013;51.104;-115.370;2023-02-28T14:27:58;85260.80;;;18.50
74536;BMP180;63013;51.104;-115.370;2023-02-28T14:31:00;85265.00;;;18.50
74536;BMP180;63013;51.104;-115.370;2023-02-28T14:34:17;85258.80;;;18.56
74536;BMP180;63013;51.104;-115.370;2023-02-28T14:36:48;85260.60;;;18.60
74536;BMP180;63013;51.104;-115.370;2023-02-28T14:39:24;85261.80;;;18.68
74536;BMP180;63013;51.104;-115.370;2023-02-28T14:41:52;85262.00;;;18.70
74536;BMP180;63013;51.104;-115.370;2023-02-28T14:44:25;85260.60;;;18.70
74536;BMP180;63013;51.104;-115.370;2023-02-28T14:47:02;85261.80;;;18.80
74536;BMP180;63013;51.104;-115.370;2023-02-28T14:49:45;85262.80;;;18.80
74536;BMP180;63013;51.104;-115.370;2023-02-28T14:52:23;85265.40;;;18.90
74536;BMP180;63013;51.104;-115.370;2023-02-28T14:55:01;85264.20;;;18.90
74536;BMP180;63013;51.104;-115.370;2023-02-28T14:57:39;85266.40;;;19.00
74536;BMP180;63013;51.104;-115.370;2023-02-28T15:00:26;85269.40;;;19.04
74536;BMP180;63013;51.104;-115.370;2023-02-28T15:02:58;85269.80;;;19.10
74536;BMP180;63013;51.104;-115.370;2023-02-28T15:05:31;85269.40;;;19.10
74536;BMP180;63013;51.104;-115.370;2023-02-28T15:08:17;85266.40;;;19.20
74536;BMP180;63013;51.104;-115.370;2023-02-28T15:13:41;85266.00;;;19.30
74536;BMP180;63013;51.104;-115.370;2023-02-28T15:16:36;85268.80;;;19.30
74536;BMP180;63013;51.104;-115.370;2023-02-28T15:21:44;85275.20;;;19.40
74536;BMP180;63013;51.104;-115.370;2023-02-28T15:24:39;85278.20;;;19.50
74536;BMP180;63013;51.104;-115.370;2023-02-28T15:27:20;85277.80;;;19.50
74536;BMP180;63013;51.104;-115.370;2023-02-28T15:29:57;85279.40;;;19.60
74536;BMP180;63013;51.104;-115.370;2023-02-28T15:32:34;85282.60;;;19.62
74536;BMP180;63013;51.104;-115.370;2023-02-28T15:35:28;85276.80;;;19.70
74536;BMP180;63013;51.104;-115.370;2023-02-28T15:38:23;85280.40;;;19.80
74536;BMP180;63013;51.104;-115.370;2023-02-28T15:40:56;85281.20;;;19.90
74536;BMP180;63013;51.104;-115.370;2023-02-28T15:43:25;85291.20;;;19.90
74536;BMP180;63013;51.104;-115.370;2023-02-28T15:46:06;85295.80;;;20.00
74536;BMP180;63013;51.104;-115.370;2023-02-28T15:48:46;85298.20;;;20.10
74536;BMP180;63013;51.104;-115.370;2023-02-28T15:51:37;85300.00;;;20.10